sensor_id;sensor_type;location;lat;lon;timestamp;temperature;humidity
20422;DHT22;10370;53.102;18.034;2022-12-07T00:04:06;2.90;99.90
20422;DHT22;10370;53.102;18.034;2022-12-07T00:09:28;2.80;99.90
20422;DHT22;10370;53.102;18.034;2022-12-07T00:14:49;2.90;99.90
20422;DHT22;10370;53.102;18.034;2022-12-07T00:20:10;2.90;99.90
20422;DHT22;10370;53.102;18.034;2022-12-07T00:25:31;2.90;99.90
20422;DHT22;10370;53.102;18.034;2022-12-07T00:30:52;2.80;99.90
20422;DHT22;10370;53.102;18.034;2022-12-07T00:36:15;2.80;99.90
20422;DHT22;10370;53.102;18.034;2022-12-07T00:41:40;2.90;99.90
20422;DHT22;10370;53.102;18.034;2022-12-07T00:47:01;2.90;99.90
20422;DHT22;10370;53.102;18.034;2022-12-07T00:52:22;2.90;99.90
20422;DHT22;10370;53.102;18.034;2022-12-07T00:57:43;2.90;99.90
20422;DHT22;10370;53.102;18.034;2022-12-07T01:03:05;2.90;99.90
20422;DHT22;10370;53.102;18.034;2022-12-07T01:08:27;2.90;99.90
20422;DHT22;10370;53.102;18.034;2022-12-07T01:13:50;2.90;99.90
20422;DHT22;10370;53.102;18.034;2022-12-07T01:19:11;2.90;99.90
20422;DHT22;10370;53.102;18.034;2022-12-07T01:24:32;2.90;99.90
20422;DHT22;10370;53.102;18.034;2022-12-07T01:29:54;2.90;99.90
20422;DHT22;10370;53.102;18.034;2022-12-07T01:35:15;2.90;99.90
20422;DHT22;10370;53.102;18.034;2022-12-07T01:40:36;2.80;99.90
20422;DHT22;10370;53.102;18.034;2022-12-07T01:45:58;2.80;99.90
20422;DHT22;10370;53.102;18.034;2022-12-07T01:51:19;2.80;99.90
20422;DHT22;10370;53.102;18.034;2022-12-07T01:56:44;2.80;99.90
20422;DHT22;10370;53.102;18.034;2022-12-07T02:02:13;2.90;99.90
20422;DHT22;10370;53.102;18.034;2022-12-07T02:07:38;2.90;99.90
20422;DHT22;10370;53.102;18.034;2022-12-07T02:13:14;2.90;99.90
20422;DHT22;10370;53.102;18.034;2022-12-07T02:24:54;3.00;99.90
20422;DHT22;10370;53.102;18.034;2022-12-07T02:30:20;3.00;99.90
20422;DHT22;10370;53.102;18.034;2022-12-07T02:35:55;3.00;99.90
20422;DHT22;10370;53.102;18.034;2022-12-07T02:41:37;3.10;99.90
20422;DHT22;10370;53.102;18.034;2022-12-07T02:47:07;3.10;99.90
20422;DHT22;10370;53.102;18.034;2022-12-07T02:52:29;3.10;99.90
20422;DHT22;10370;53.102;18.034;2022-12-07T02:58:19;3.20;99.90
20422;DHT22;10370;53.102;18.034;2022-12-07T03:03:45;3.20;99.90
20422;DHT22;10370;53.102;18.034;2022-12-07T03:09:15;3.20;99.90
20422;DHT22;10370;53.102;18.034;2022-12-07T03:14:49;3.20;99.90
20422;DHT22;10370;53.102;18.034;2022-12-07T03:20:17;3.20;99.90
20422;DHT22;10370;53.102;18.034;2022-12-07T03:25:45;3.20;99.90
20422;DHT22;10370;53.102;18.034;2022-12-07T03:42:04;3.20;99.90
20422;DHT22;10370;53.102;18.034;2022-12-07T03:47:37;3.20;99.90
20422;DHT22;10370;53.102;18.034;2022-12-07T03:53:24;3.20;99.90
20422;DHT22;10370;53.102;18.034;2022-12-07T03:58:48;3.10;99.90
20422;DHT22;10370;53.102;18.034;2022-12-07T04:04:09;3.10;99.90
20422;DHT22;10370;53.102;18.034;2022-12-07T04:09:30;3.10;99.90
20422;DHT22;10370;53.102;18.034;2022-12-07T04:14:51;3.10;99.90
20422;DHT22;10370;53.102;18.034;2022-12-07T04:20:12;3.10;99.90
20422;DHT22;10370;53.102;18.034;2022-12-07T04:25:33;3.10;99.90
20422;DHT22;10370;53.102;18.034;2022-12-07T04:30:54;3.00;99.90
20422;DHT22;10370;53.102;18.034;2022-12-07T04:36:16;2.90;99.90
20422;DHT22;10370;53.102;18.034;2022-12-07T04:41:36;2.80;99.90
20422;DHT22;10370;53.102;18.034;2022-12-07T04:46:57;2.70;99.90
20422;DHT22;10370;53.102;18.034;2022-12-07T04:52:19;2.60;99.90
20422;DHT22;10370;53.102;18.034;2022-12-07T04:57:40;2.50;99.90
20422;DHT22;10370;53.102;18.034;2022-12-07T05:03:01;2.40;99.90
20422;DHT22;10370;53.102;18.034;2022-12-07T05:08:22;2.30;99.90
20422;DHT22;10370;53.102;18.034;2022-12-07T05:13:43;2.20;99.90
20422;DHT22;10370;53.102;18.034;2022-12-07T05:19:04;2.10;99.90
20422;DHT22;10370;53.102;18.034;2022-12-07T05:24:25;2.00;99.90
20422;DHT22;10370;53.102;18.034;2022-12-07T05:29:46;1.90;99.90
20422;DHT22;10370;53.102;18.034;2022-12-07T05:35:07;1.90;99.90
20422;DHT22;10370;53.102;18.034;2022-12-07T05:40:28;1.80;99.90
20422;DHT22;10370;53.102;18.034;2022-12-07T05:45:49;1.70;99.90
20422;DHT22;10370;53.102;18.034;2022-12-07T05:51:10;1.70;99.90
20422;DHT22;10370;53.102;18.034;2022-12-07T05:56:31;1.60;99.90
20422;DHT22;10370;53.102;18.034;2022-12-07T06:02:04;1.50;99.90
20422;DHT22;10370;53.102;18.034;2022-12-07T06:07:25;1.40;99.90
20422;DHT22;10370;53.102;18.034;2022-12-07T06:12:45;1.40;99.90
20422;DHT22;10370;53.102;18.034;2022-12-07T06:18:08;1.30;99.90
20422;DHT22;10370;53.102;18.034;2022-12-07T06:23:31;1.30;99.90
20422;DHT22;10370;53.102;18.034;2022-12-07T06:28:52;1.30;99.90
20422;DHT22;10370;53.102;18.034;2022-12-07T06:34:16;1.40;99.90
20422;DHT22;10370;53.102;18.034;2022-12-07T06:39:38;1.40;99.90
20422;DHT22;10370;53.102;18.034;2022-12-07T06:45:00;1.40;99.90
20422;DHT22;10370;53.102;18.034;2022-12-07T06:50:23;1.40;99.90
20422;DHT22;10370;53.102;18.034;2022-12-07T06:55:45;1.50;99.90
20422;DHT22;10370;53.102;18.034;2022-12-07T07:01:12;1.50;99.90
20422;DHT22;10370;53.102;18.034;2022-12-07T07:06:37;1.50;99.90
20422;DHT22;10370;53.102;18.034;2022-12-07T07:11:59;1.60;99.90
20422;DHT22;10370;53.102;18.034;2022-12-07T07:17:20;1.60;99.90
20422;DHT22;10370;53.102;18.034;2022-12-07T07:22:43;1.60;99.90
20422;DHT22;10370;53.102;18.034;2022-12-07T07:28:06;1.70;99.90
20422;DHT22;10370;53.102;18.034;2022-12-07T07:33:28;1.70;99.90
20422;DHT22;10370;53.102;18.034;2022-12-07T07:38:55;1.60;99.90
20422;DHT22;10370;53.102;18.034;2022-12-07T07:44:18;1.60;99.90
20422;DHT22;10370;53.102;18.034;2022-12-07T07:49:39;1.60;99.90
20422;DHT22;10370;53.102;18.034;2022-12-07T07:55:07;1.60;99.90
20422;DHT22;10370;53.102;18.034;2022-12-07T08:00:30;1.60;99.90
20422;DHT22;10370;53.102;18.034;2022-12-07T08:05:51;1.50;99.90
20422;DHT22;10370;53.102;18.034;2022-12-07T08:11:13;1.50;99.90
20422;DHT22;10370;53.102;18.034;2022-12-07T08:16:34;1.50;99.90
20422;DHT22;10370;53.102;18.034;2022-12-07T08:21:55;1.60;99.90
20422;DHT22;10370;53.102;18.034;2022-12-07T08:27:17;1.70;99.90
20422;DHT22;10370;53.102;18.034;2022-12-07T08:32:38;1.90;99.90
20422;DHT22;10370;53.102;18.034;2022-12-07T08:37:59;2.00;99.90
20422;DHT22;10370;53.102;18.034;2022-12-07T08:43:20;2.00;99.90
20422;DHT22;10370;53.102;18.034;2022-12-07T08:48:45;2.00;99.90
20422;DHT22;10370;53.102;18.034;2022-12-07T08:54:17;2.10;99.90
20422;DHT22;10370;53.102;18.034;2022-12-07T08:59:39;2.20;99.90
20422;DHT22;10370;53.102;18.034;2022-12-07T09:05:00;2.30;99.90
20422;DHT22;10370;53.102;18.034;2022-12-07T09:10:21;2.40;99.90
20422;DHT22;10370;53.102;18.034;2022-12-07T09:15:43;2.50;99.90
20422;DHT22;10370;53.102;18.034;2022-12-07T09:21:04;2.50;99.90
20422;DHT22;10370;53.102;18.034;2022-12-07T09:26:26;2.60;99.90
20422;DHT22;10370;53.102;18.034;2022-12-07T09:31:47;2.60;99.90
20422;DHT22;10370;53.102;18.034;2022-12-07T09:37:08;2.80;99.90
20422;DHT22;10370;53.102;18.034;2022-12-07T09:42:43;2.80;99.90
20422;DHT22;10370;53.102;18.034;2022-12-07T09:48:05;2.80;99.90
20422;DHT22;10370;53.102;18.034;2022-12-07T09:53:34;2.90;99.90
20422;DHT22;10370;53.102;18.034;2022-12-07T09:59:02;2.80;99.90
20422;DHT22;10370;53.102;18.034;2022-12-07T10:04:26;2.80;99.90
20422;DHT22;10370;53.102;18.034;2022-12-07T10:09:50;2.90;99.90
20422;DHT22;10370;53.102;18.034;2022-12-07T10:15:11;2.80;99.90
20422;DHT22;10370;53.102;18.034;2022-12-07T10:20:34;2.80;99.90
20422;DHT22;10370;53.102;18.034;2022-12-07T10:25:55;2.80;99.90
20422;DHT22;10370;53.102;18.034;2022-12-07T10:31:18;2.90;99.90
20422;DHT22;10370;53.102;18.034;2022-12-07T10:36:40;2.90;99.90
20422;DHT22;10370;53.102;18.034;2022-12-07T10:42:03;2.90;99.90
20422;DHT22;10370;53.102;18.034;2022-12-07T10:47:36;2.90;99.90
20422;DHT22;10370;53.102;18.034;2022-12-07T11:04:21;2.90;99.90
20422;DHT22;10370;53.102;18.034;2022-12-07T11:37:47;2.80;99.90
20422;DHT22;10370;53.102;18.034;2022-12-07T11:49:32;2.70;99.90
20422;DHT22;10370;53.102;18.034;2022-12-07T11:54:59;2.70;99.90
20422;DHT22;10370;53.102;18.034;2022-12-07T12:00:20;2.70;99.90
20422;DHT22;10370;53.102;18.034;2022-12-07T12:05:41;2.70;99.90
20422;DHT22;10370;53.102;18.034;2022-12-07T12:23:22;2.60;99.90
20422;DHT22;10370;53.102;18.034;2022-12-07T12:28:51;2.60;99.90
20422;DHT22;10370;53.102;18.034;2022-12-07T12:45:35;2.70;99.90
20422;DHT22;10370;53.102;18.034;2022-12-07T12:51:36;2.70;99.90
20422;DHT22;10370;53.102;18.034;2022-12-07T12:57:29;2.70;99.90
20422;DHT22;10370;53.102;18.034;2022-12-07T13:02:55;2.60;99.90
20422;DHT22;10370;53.102;18.034;2022-12-07T13:08:18;2.70;99.90
20422;DHT22;10370;53.102;18.034;2022-12-07T13:13:42;2.70;99.90
20422;DHT22;10370;53.102;18.034;2022-12-07T13:25:30;2.60;99.90
20422;DHT22;10370;53.102;18.034;2022-12-07T13:31:16;2.60;99.90
20422;DHT22;10370;53.102;18.034;2022-12-07T13:36:39;2.50;99.90
20422;DHT22;10370;53.102;18.034;2022-12-07T13:42:15;2.50;99.90
20422;DHT22;10370;53.102;18.034;2022-12-07T13:47:48;2.50;99.90
20422;DHT22;10370;53.102;18.034;2022-12-07T13:53:13;2.50;99.90
20422;DHT22;10370;53.102;18.034;2022-12-07T13:58:36;2.40;99.90
20422;DHT22;10370;53.102;18.034;2022-12-07T14:04:38;2.40;99.90
20422;DHT22;10370;53.102;18.034;2022-12-07T14:10:04;2.40;99.90
20422;DHT22;10370;53.102;18.034;2022-12-07T14:15:29;2.40;99.90
20422;DHT22;10370;53.102;18.034;2022-12-07T14:20:50;2.40;99.90
20422;DHT22;10370;53.102;18.034;2022-12-07T14:26:19;2.40;99.90
20422;DHT22;10370;53.102;18.034;2022-12-07T14:31:40;2.40;99.90
20422;DHT22;10370;53.102;18.034;2022-12-07T14:37:01;2.30;99.90
20422;DHT22;10370;53.102;18.034;2022-12-07T14:42:25;2.40;99.90
20422;DHT22;10370;53.102;18.034;2022-12-07T14:47:49;2.30;99.90
20422;DHT22;10370;53.102;18.034;2022-12-07T14:53:35;2.30;99.90
20422;DHT22;10370;53.102;18.034;2022-12-07T14:58:56;2.20;99.90
20422;DHT22;10370;53.102;18.034;2022-12-07T15:04:17;2.20;99.90
20422;DHT22;10370;53.102;18.034;2022-12-07T15:09:38;2.20;99.90
20422;DHT22;10370;53.102;18.034;2022-12-07T15:14:59;2.20;99.90
20422;DHT22;10370;53.102;18.034;2022-12-07T15:20:22;2.20;99.90
20422;DHT22;10370;53.102;18.034;2022-12-07T15:25:45;2.20;99.90
20422;DHT22;10370;53.102;18.034;2022-12-07T15:31:13;2.20;99.90
20422;DHT22;10370;53.102;18.034;2022-12-07T15:36:54;2.10;99.90
20422;DHT22;10370;53.102;18.034;2022-12-07T15:42:16;2.10;99.90
20422;DHT22;10370;53.102;18.034;2022-12-07T15:47:39;2.10;99.90
20422;DHT22;10370;53.102;18.034;2022-12-07T15:53:20;2.10;99.90
20422;DHT22;10370;53.102;18.034;2022-12-07T15:58:41;2.10;99.90
20422;DHT22;10370;53.102;18.034;2022-12-07T16:04:03;2.00;99.90
20422;DHT22;10370;53.102;18.034;2022-12-07T16:09:24;2.00;99.90
20422;DHT22;10370;53.102;18.034;2022-12-07T16:14:46;1.90;99.90
20422;DHT22;10370;53.102;18.034;2022-12-07T16:20:07;1.80;99.90
20422;DHT22;10370;53.102;18.034;2022-12-07T16:25:28;1.80;99.90
20422;DHT22;10370;53.102;18.034;2022-12-07T16:31:03;1.80;99.90
20422;DHT22;10370;53.102;18.034;2022-12-07T16:36:25;1.80;99.90
20422;DHT22;10370;53.102;18.034;2022-12-07T16:42:07;1.80;99.90
20422;DHT22;10370;53.102;18.034;2022-12-07T16:47:28;1.80;99.90
20422;DHT22;10370;53.102;18.034;2022-12-07T16:52:50;1.80;99.90
20422;DHT22;10370;53.102;18.034;2022-12-07T16:58:14;1.80;99.90
20422;DHT22;10370;53.102;18.034;2022-12-07T17:03:36;1.80;99.90
20422;DHT22;10370;53.102;18.034;2022-12-07T17:08:57;1.80;99.90
20422;DHT22;10370;53.102;18.034;2022-12-07T17:14:18;1.80;99.90
20422;DHT22;10370;53.102;18.034;2022-12-07T17:19:58;1.90;99.90
20422;DHT22;10370;53.102;18.034;2022-12-07T17:25:19;1.80;99.90
20422;DHT22;10370;53.102;18.034;2022-12-07T17:30:40;1.70;99.90
20422;DHT22;10370;53.102;18.034;2022-12-07T17:36:09;1.70;99.90
20422;DHT22;10370;53.102;18.034;2022-12-07T17:41:30;1.60;99.90
20422;DHT22;10370;53.102;18.034;2022-12-07T17:47:10;1.70;99.90
20422;DHT22;10370;53.102;18.034;2022-12-07T17:52:31;1.70;99.90
20422;DHT22;10370;53.102;18.034;2022-12-07T17:58:10;1.70;99.90
20422;DHT22;10370;53.102;18.034;2022-12-07T18:03:31;1.70;99.90
20422;DHT22;10370;53.102;18.034;2022-12-07T18:08:52;1.70;99.90
20422;DHT22;10370;53.102;18.034;2022-12-07T18:14:14;1.70;99.90
20422;DHT22;10370;53.102;18.034;2022-12-07T18:19:36;1.70;99.90
20422;DHT22;10370;53.102;18.034;2022-12-07T18:24:57;1.60;99.90
20422;DHT22;10370;53.102;18.034;2022-12-07T18:30:18;1.40;99.90
20422;DHT22;10370;53.102;18.034;2022-12-07T18:35:47;1.30;99.90
20422;DHT22;10370;53.102;18.034;2022-12-07T18:41:11;1.10;99.90
20422;DHT22;10370;53.102;18.034;2022-12-07T18:46:34;1.00;99.90
20422;DHT22;10370;53.102;18.034;2022-12-07T18:59:28;0.80;99.90
20422;DHT22;10370;53.102;18.034;2022-12-07T19:05:48;0.90;99.90
20422;DHT22;10370;53.102;18.034;2022-12-07T19:18:07;1.10;99.90
20422;DHT22;10370;53.102;18.034;2022-12-07T19:23:35;1.10;99.90
20422;DHT22;10370;53.102;18.034;2022-12-07T19:29:03;1.00;99.90
20422;DHT22;10370;53.102;18.034;2022-12-07T19:41:37;0.90;99.90
20422;DHT22;10370;53.102;18.034;2022-12-07T19:47:00;1.00;99.90
20422;DHT22;10370;53.102;18.034;2022-12-07T19:52:24;1.00;99.90
20422;DHT22;10370;53.102;18.034;2022-12-07T19:57:46;1.10;99.90
20422;DHT22;10370;53.102;18.034;2022-12-07T20:03:07;1.00;99.90
20422;DHT22;10370;53.102;18.034;2022-12-07T20:08:28;1.00;99.90
20422;DHT22;10370;53.102;18.034;2022-12-07T20:13:50;1.10;99.90
20422;DHT22;10370;53.102;18.034;2022-12-07T20:19:12;1.20;99.90
20422;DHT22;10370;53.102;18.034;2022-12-07T20:24:33;1.20;99.90
20422;DHT22;10370;53.102;18.034;2022-12-07T20:29:56;1.30;99.90
20422;DHT22;10370;53.102;18.034;2022-12-07T20:35:16;1.30;99.90
20422;DHT22;10370;53.102;18.034;2022-12-07T20:40:41;1.40;99.90
20422;DHT22;10370;53.102;18.034;2022-12-07T20:46:05;1.40;99.90
20422;DHT22;10370;53.102;18.034;2022-12-07T20:51:27;1.40;99.90
20422;DHT22;10370;53.102;18.034;2022-12-07T20:56:48;1.30;99.90
20422;DHT22;10370;53.102;18.034;2022-12-07T21:02:11;1.30;99.90
20422;DHT22;10370;53.102;18.034;2022-12-07T21:07:33;1.40;99.90
20422;DHT22;10370;53.102;18.034;2022-12-07T21:12:54;1.30;99.90
20422;DHT22;10370;53.102;18.034;2022-12-07T21:18:15;1.30;99.90
20422;DHT22;10370;53.102;18.034;2022-12-07T21:23:36;1.30;99.90
20422;DHT22;10370;53.102;18.034;2022-12-07T21:28:57;1.20;99.90
20422;DHT22;10370;53.102;18.034;2022-12-07T21:34:19;1.00;99.90
20422;DHT22;10370;53.102;18.034;2022-12-07T21:39:39;1.00;99.90
20422;DHT22;10370;53.102;18.034;2022-12-07T21:45:00;1.00;99.90
20422;DHT22;10370;53.102;18.034;2022-12-07T21:50:21;1.10;99.90
20422;DHT22;10370;53.102;18.034;2022-12-07T21:55:45;1.10;99.90
20422;DHT22;10370;53.102;18.034;2022-12-07T22:14:40;1.00;99.90
20422;DHT22;10370;53.102;18.034;2022-12-07T22:20:45;1.10;99.90
20422;DHT22;10370;53.102;18.034;2022-12-07T22:26:07;1.00;99.90
20422;DHT22;10370;53.102;18.034;2022-12-07T22:31:28;1.10;99.90
20422;DHT22;10370;53.102;18.034;2022-12-07T22:36:49;1.20;99.90
20422;DHT22;10370;53.102;18.034;2022-12-07T22:42:10;1.20;99.90
20422;DHT22;10370;53.102;18.034;2022-12-07T22:47:31;1.20;99.90
20422;DHT22;10370;53.102;18.034;2022-12-07T22:52:53;1.20;99.90
20422;DHT22;10370;53.102;18.034;2022-12-07T22:58:15;1.30;99.90
20422;DHT22;10370;53.102;18.034;2022-12-07T23:03:36;1.20;99.90
20422;DHT22;10370;53.102;18.034;2022-12-07T23:08:58;1.30;99.90
20422;DHT22;10370;53.102;18.034;2022-12-07T23:14:25;1.30;99.90
20422;DHT22;10370;53.102;18.034;2022-12-07T23:19:46;1.30;99.90
20422;DHT22;10370;53.102;18.034;2022-12-07T23:25:13;1.20;99.90
20422;DHT22;10370;53.102;18.034;2022-12-07T23:30:34;1.20;99.90
20422;DHT22;10370;53.102;18.034;2022-12-07T23:35:55;1.10;99.90
20422;DHT22;10370;53.102;18.034;2022-12-07T23:41:26;1.00;99.90
20422;DHT22;10370;53.102;18.034;2022-12-07T23:46:47;0.90;99.90
20422;DHT22;10370;53.102;18.034;2022-12-07T23:52:16;0.90;99.90
20422;DHT22;10370;53.102;18.034;2022-12-07T23:57:51;0.90;99.90
